createdAt,value
2018-08-25T00:00:34.820Z,0.00
2018-08-25T00:01:34.752Z,0.00
2018-08-25T00:02:55.651Z,0.00
2018-08-25T00:03:34.602Z,0.00
2018-08-25T00:04:34.528Z,0.00
2018-08-25T00:05:34.446Z,0.00
2018-08-25T00:06:34.375Z,0.00
2018-08-25T00:07:34.291Z,0.00
2018-08-25T00:08:55.207Z,0.00
2018-08-25T00:09:34.154Z,0.00
2018-08-25T00:10:34.068Z,0.00
2018-08-25T00:11:33.999Z,0.00
2018-08-25T00:12:33.925Z,0.00
2018-08-25T00:13:33.851Z,0.00
2018-08-25T00:14:54.752Z,0.00
2018-08-25T00:15:33.692Z,0.00
2018-08-25T00:16:33.625Z,0.00
2018-08-25T00:17:33.541Z,0.00
2018-08-25T00:18:33.480Z,0.00
2018-08-25T00:19:33.398Z,0.00
2018-08-25T00:20:54.313Z,0.00
2018-08-25T00:21:33.252Z,0.00
2018-08-25T00:22:33.173Z,0.00
2018-08-25T00:23:33.114Z,0.00
2018-08-25T00:24:33.022Z,0.00
2018-08-25T00:25:32.954Z,0.00
2018-08-25T00:26:53.864Z,0.00
2018-08-25T00:27:32.797Z,0.00
2018-08-25T00:28:32.729Z,0.00
2018-08-25T00:29:32.649Z,0.00
2018-08-25T00:30:32.565Z,0.00
2018-08-25T00:31:32.502Z,0.00
2018-08-25T00:32:53.410Z,0.00
2018-08-25T00:33:32.352Z,0.00
2018-08-25T00:34:32.273Z,0.00
2018-08-25T00:35:32.203Z,0.00
2018-08-25T00:36:32.128Z,0.00
2018-08-25T00:37:32.060Z,0.00
2018-08-25T00:38:52.961Z,0.00
2018-08-25T00:39:31.901Z,0.00
2018-08-25T00:40:31.829Z,0.00
2018-08-25T00:41:31.751Z,0.00
2018-08-25T00:42:31.764Z,0.00
2018-08-25T00:43:31.606Z,0.00
2018-08-25T00:44:52.505Z,0.00
2018-08-25T00:45:31.454Z,0.00
2018-08-25T00:46:31.375Z,0.00
2018-08-25T00:47:31.296Z,0.00
2018-08-25T00:48:31.227Z,0.00
2018-08-25T00:49:31.148Z,0.00
2018-08-25T00:50:52.060Z,0.00
2018-08-25T00:51:31.002Z,0.00
2018-08-25T00:52:30.928Z,0.00
2018-08-25T00:53:30.853Z,0.00
2018-08-25T00:54:30.771Z,0.00
2018-08-25T00:55:30.695Z,0.00
2018-08-25T00:56:51.605Z,0.00
2018-08-25T00:57:30.613Z,0.00
2018-08-25T00:58:30.470Z,0.00
2018-08-25T00:59:30.443Z,0.00
2018-08-25T01:00:30.326Z,0.00
2018-08-25T01:01:30.259Z,0.00
2018-08-25T01:02:51.242Z,0.00
2018-08-25T01:03:30.089Z,0.00
2018-08-25T01:04:30.024Z,0.00
2018-08-25T01:05:29.945Z,0.00
2018-08-25T01:06:29.882Z,0.00
2018-08-25T01:07:29.816Z,0.00
2018-08-25T01:08:50.708Z,0.00
2018-08-25T01:09:29.649Z,0.00
2018-08-25T01:10:29.571Z,0.00
2018-08-25T01:11:29.501Z,0.00
2018-08-25T01:12:29.425Z,0.00
2018-08-25T01:13:29.343Z,0.00
2018-08-25T01:14:50.258Z,0.00
2018-08-25T01:15:29.238Z,0.00
2018-08-25T01:16:29.110Z,0.00
2018-08-25T01:17:29.053Z,0.00
2018-08-25T01:18:30.830Z,0.00
2018-08-25T01:19:28.901Z,0.00
2018-08-25T01:20:49.805Z,0.00
2018-08-25T01:21:28.746Z,0.00
2018-08-25T01:22:28.673Z,0.00
2018-08-25T01:23:28.606Z,0.00
2018-08-25T01:24:28.514Z,0.00
2018-08-25T01:25:28.478Z,0.00
2018-08-25T01:26:49.346Z,0.00
2018-08-25T01:27:28.292Z,0.00
2018-08-25T01:28:28.215Z,0.00
2018-08-25T01:29:28.141Z,0.00
2018-08-25T01:30:28.070Z,0.00
2018-08-25T01:31:27.998Z,0.00
2018-08-25T01:32:48.906Z,0.00
2018-08-25T01:33:27.842Z,0.00
2018-08-25T01:34:27.767Z,0.00
2018-08-25T01:35:27.685Z,0.00
2018-08-25T01:36:27.715Z,0.00
2018-08-25T01:37:27.541Z,0.00
2018-08-25T01:38:48.451Z,0.00
2018-08-25T01:39:27.389Z,0.00
2018-08-25T01:40:27.315Z,0.00
2018-08-25T01:41:27.233Z,0.00
2018-08-25T01:42:27.164Z,0.00
2018-08-25T01:43:27.084Z,0.00
2018-08-25T01:44:47.997Z,0.00
2018-08-25T01:45:26.945Z,0.00
2018-08-25T01:46:26.856Z,0.00
2018-08-25T01:47:26.790Z,0.00
2018-08-25T01:48:26.710Z,0.00
2018-08-25T01:49:26.630Z,0.00
2018-08-25T01:50:47.542Z,0.00
2018-08-25T01:51:26.578Z,0.00
2018-08-25T01:52:26.402Z,0.00
2018-08-25T01:53:26.351Z,0.00
2018-08-25T01:54:26.252Z,0.00
2018-08-25T01:55:26.178Z,0.00
2018-08-25T01:56:47.088Z,0.00
2018-08-25T01:57:26.022Z,0.00
2018-08-25T01:58:25.948Z,0.00
2018-08-25T01:59:25.889Z,0.00
2018-08-25T02:00:25.797Z,0.00
2018-08-25T02:01:25.720Z,0.00
2018-08-25T02:02:46.669Z,0.00
2018-08-25T02:03:25.577Z,0.00
2018-08-25T02:04:25.507Z,0.00
2018-08-25T02:05:25.422Z,0.00
2018-08-25T02:06:25.349Z,0.00
2018-08-25T02:07:25.279Z,0.00
2018-08-25T02:08:46.180Z,0.00
2018-08-25T02:09:25.123Z,0.00
2018-08-25T02:10:25.046Z,0.00
2018-08-25T02:11:24.972Z,0.00
2018-08-25T02:12:24.905Z,0.00
2018-08-25T02:13:24.820Z,0.00
2018-08-25T02:14:45.728Z,0.00
2018-08-25T02:15:24.659Z,0.00
2018-08-25T02:16:24.696Z,0.00
2018-08-25T02:17:24.518Z,0.00
2018-08-25T02:18:24.445Z,0.00
2018-08-25T02:19:24.376Z,0.00
2018-08-25T02:20:45.271Z,0.00
2018-08-25T02:21:24.219Z,0.00
2018-08-25T02:22:24.140Z,0.00
2018-08-25T02:23:24.065Z,0.00
2018-08-25T02:24:23.991Z,0.00
2018-08-25T02:25:23.938Z,0.00
2018-08-25T02:26:44.818Z,0.00
2018-08-25T02:27:23.782Z,0.00
2018-08-25T02:28:23.764Z,0.00
2018-08-25T02:29:23.613Z,0.00
2018-08-25T02:30:23.532Z,0.00
2018-08-25T02:31:23.458Z,0.00
2018-08-25T02:32:44.368Z,0.00
2018-08-25T02:33:23.320Z,0.00
2018-08-25T02:34:23.234Z,0.00
2018-08-25T02:35:23.158Z,0.00
2018-08-25T02:36:23.086Z,0.00
2018-08-25T02:37:23.004Z,0.00
2018-08-25T02:38:43.978Z,0.00
2018-08-25T02:39:22.858Z,0.00
2018-08-25T02:40:22.787Z,0.00
2018-08-25T02:41:22.703Z,0.00
2018-08-25T02:42:22.633Z,0.00
2018-08-25T02:43:22.554Z,0.00
2018-08-25T02:44:43.457Z,0.00
2018-08-25T02:45:22.409Z,0.00
2018-08-25T02:46:22.329Z,0.00
2018-08-25T02:47:22.251Z,0.00
2018-08-25T02:48:22.178Z,0.00
2018-08-25T02:49:22.102Z,0.00
2018-08-25T02:50:43.003Z,0.00
2018-08-25T02:51:21.951Z,0.00
2018-08-25T02:52:21.873Z,0.00
2018-08-25T02:53:21.795Z,0.00
2018-08-25T02:54:21.716Z,0.00
2018-08-25T02:55:21.638Z,0.00
2018-08-25T02:56:42.548Z,0.00
2018-08-25T02:57:21.501Z,0.00
2018-08-25T02:58:21.419Z,0.00
2018-08-25T02:59:21.345Z,0.00
2018-08-25T03:00:21.262Z,0.00
2018-08-25T03:01:21.186Z,0.00
2018-08-25T03:02:42.095Z,0.00
2018-08-25T03:03:21.035Z,0.00
2018-08-25T03:04:20.971Z,0.00
2018-08-25T03:05:20.877Z,0.00
2018-08-25T03:06:20.811Z,0.00
2018-08-25T03:07:20.732Z,0.00
2018-08-25T03:08:41.638Z,0.00
2018-08-25T03:09:20.582Z,0.00
2018-08-25T03:10:20.503Z,0.00
2018-08-25T03:11:20.426Z,0.00
2018-08-25T03:12:20.354Z,0.00
2018-08-25T03:13:20.275Z,0.00
2018-08-25T03:14:41.188Z,0.00
2018-08-25T03:15:20.119Z,0.00
2018-08-25T03:16:20.051Z,0.00
2018-08-25T03:17:19.980Z,0.00
2018-08-25T03:18:19.887Z,0.00
2018-08-25T03:19:19.821Z,0.00
2018-08-25T03:20:40.728Z,0.00
2018-08-25T03:21:19.677Z,0.00
2018-08-25T03:22:19.597Z,0.00
2018-08-25T03:23:19.522Z,0.00
2018-08-25T03:24:19.446Z,0.00
2018-08-25T03:25:19.375Z,0.00
2018-08-25T03:26:40.271Z,0.00
2018-08-25T03:27:19.219Z,0.00
2018-08-25T03:28:19.137Z,0.00
2018-08-25T03:29:19.075Z,0.00
2018-08-25T03:30:18.989Z,0.00
2018-08-25T03:31:18.917Z,0.00
2018-08-25T03:32:39.819Z,0.00
2018-08-25T03:33:18.766Z,0.00
2018-08-25T03:34:18.678Z,0.00
2018-08-25T03:35:18.617Z,0.00
2018-08-25T03:36:18.531Z,0.00
2018-08-25T03:37:18.462Z,0.00
2018-08-25T03:38:39.484Z,0.00
2018-08-25T03:39:18.301Z,0.00
2018-08-25T03:40:18.294Z,0.00
2018-08-25T03:41:18.154Z,0.00
2018-08-25T03:42:18.085Z,0.00
2018-08-25T03:43:17.992Z,0.00
2018-08-25T03:44:39.006Z,0.00
2018-08-25T03:45:17.845Z,0.00
2018-08-25T03:46:17.779Z,0.00
2018-08-25T03:47:17.718Z,0.00
2018-08-25T03:48:17.619Z,0.00
2018-08-25T03:49:17.552Z,0.00
2018-08-25T03:50:38.456Z,0.00
2018-08-25T03:51:17.444Z,0.00
2018-08-25T03:52:17.321Z,0.00
2018-08-25T03:53:17.245Z,0.00
2018-08-25T03:54:17.160Z,0.00
2018-08-25T03:55:17.180Z,0.00
2018-08-25T03:56:38.002Z,0.00
2018-08-25T03:57:16.971Z,0.00
2018-08-25T03:58:16.861Z,0.00
2018-08-25T03:59:16.795Z,0.00
2018-08-25T04:00:16.713Z,0.00
2018-08-25T04:01:16.631Z,0.00
2018-08-25T04:02:37.537Z,0.00
2018-08-25T04:03:16.489Z,0.00
2018-08-25T04:04:16.407Z,0.00
2018-08-25T04:05:16.408Z,0.00
2018-08-25T04:06:16.248Z,0.00
2018-08-25T04:07:16.185Z,0.00
2018-08-25T04:08:37.092Z,0.00
2018-08-25T04:09:16.133Z,4.00
2018-08-25T04:10:15.958Z,4.00
2018-08-25T04:11:15.894Z,0.00
2018-08-25T04:12:15.797Z,0.00
2018-08-25T04:13:15.747Z,0.00
2018-08-25T04:14:36.628Z,4.00
2018-08-25T04:15:15.658Z,0.00
2018-08-25T04:16:15.492Z,4.00
2018-08-25T04:17:15.417Z,4.00
2018-08-25T04:18:15.341Z,4.00
2018-08-25T04:19:15.373Z,0.00
2018-08-25T04:20:36.173Z,0.00
2018-08-25T04:21:15.112Z,4.00
2018-08-25T04:22:15.117Z,4.00
2018-08-25T04:23:14.997Z,4.00
2018-08-25T04:24:14.947Z,8.00
2018-08-25T04:25:14.823Z,4.00
2018-08-25T04:26:35.712Z,4.00
2018-08-25T04:27:14.711Z,8.00
2018-08-25T04:28:14.582Z,8.00
2018-08-25T04:29:14.623Z,8.00
2018-08-25T04:30:14.425Z,8.00
2018-08-25T04:31:14.352Z,12.00
2018-08-25T04:32:35.259Z,8.00
2018-08-25T04:33:14.233Z,12.00
2018-08-25T04:34:14.121Z,12.00
2018-08-25T04:35:14.149Z,12.00
2018-08-25T04:36:13.971Z,16.00
2018-08-25T04:37:13.964Z,16.00
2018-08-25T04:38:34.800Z,16.00
2018-08-25T04:39:13.752Z,20.00
2018-08-25T04:40:13.664Z,16.00
2018-08-25T04:41:13.663Z,20.00
2018-08-25T04:42:13.586Z,20.00
2018-08-25T04:43:13.451Z,24.00
2018-08-25T04:44:34.378Z,28.00
2018-08-25T04:45:13.296Z,28.00
2018-08-25T04:46:13.225Z,28.00
2018-08-25T04:47:13.205Z,28.00
2018-08-25T04:48:13.058Z,32.00
2018-08-25T04:49:13.016Z,32.00
2018-08-25T04:50:33.884Z,36.00
2018-08-25T04:51:12.832Z,36.00
2018-08-25T04:52:12.761Z,36.00
2018-08-25T04:53:12.730Z,40.00
2018-08-25T04:54:12.598Z,36.00
2018-08-25T04:55:12.528Z,40.00
2018-08-25T04:56:33.427Z,44.00
2018-08-25T04:57:12.451Z,44.00
2018-08-25T04:58:12.309Z,44.00
2018-08-25T04:59:12.228Z,48.00
2018-08-25T05:00:12.143Z,48.00
2018-08-25T05:01:12.075Z,48.00
2018-08-25T05:02:32.978Z,52.00
2018-08-25T05:03:11.933Z,56.00
2018-08-25T05:04:11.842Z,60.00
2018-08-25T05:05:11.790Z,60.00
2018-08-25T05:06:11.701Z,68.00
2018-08-25T05:07:11.701Z,72.00
2018-08-25T05:08:32.529Z,76.00
2018-08-25T05:09:11.507Z,76.00
2018-08-25T05:10:11.398Z,80.00
2018-08-25T05:11:11.315Z,80.00
2018-08-25T05:12:11.237Z,80.00
2018-08-25T05:13:11.172Z,84.00
2018-08-25T05:14:32.123Z,88.00
2018-08-25T05:15:11.004Z,92.00
2018-08-25T05:16:11.041Z,92.00
2018-08-25T05:17:10.851Z,96.00
2018-08-25T05:18:10.847Z,104.00
2018-08-25T05:19:10.692Z,104.00
2018-08-25T05:20:31.648Z,104.00
2018-08-25T05:21:10.546Z,108.00
2018-08-25T05:22:10.467Z,108.00
2018-08-25T05:23:10.484Z,108.00
2018-08-25T05:24:10.323Z,104.00
2018-08-25T05:25:10.282Z,104.00
2018-08-25T05:26:31.151Z,104.00
2018-08-25T05:27:10.202Z,104.00
2018-08-25T05:28:10.013Z,104.00
2018-08-25T05:29:09.945Z,100.00
2018-08-25T05:30:09.856Z,104.00
2018-08-25T05:31:09.808Z,108.00
2018-08-25T05:32:30.687Z,104.00
2018-08-25T05:33:09.718Z,112.00
2018-08-25T05:34:09.559Z,112.00
2018-08-25T05:35:09.490Z,124.00
2018-08-25T05:36:09.411Z,124.00
2018-08-25T05:37:09.332Z,128.00
2018-08-25T05:38:30.335Z,132.00
2018-08-25T05:39:09.177Z,136.00
2018-08-25T05:40:09.146Z,136.00
2018-08-25T05:41:09.027Z,136.00
2018-08-25T05:42:08.960Z,140.00
2018-08-25T05:43:08.972Z,140.00
2018-08-25T05:44:29.798Z,140.00
2018-08-25T05:45:08.726Z,140.00
2018-08-25T05:46:08.652Z,140.00
2018-08-25T05:47:08.682Z,140.00
2018-08-25T05:48:08.496Z,136.00
2018-08-25T05:49:08.494Z,140.00
2018-08-25T05:50:29.317Z,140.00
2018-08-25T05:51:08.308Z,140.00
2018-08-25T05:52:08.191Z,136.00
2018-08-25T05:53:08.208Z,136.00
2018-08-25T05:54:08.041Z,136.00
2018-08-25T05:55:08.019Z,136.00
2018-08-25T05:56:28.862Z,136.00
2018-08-25T05:57:07.833Z,132.00
2018-08-25T05:58:07.736Z,132.00
2018-08-25T05:59:07.746Z,128.00
2018-08-25T06:00:07.581Z,128.00
2018-08-25T06:01:07.505Z,128.00
2018-08-25T06:02:28.414Z,128.00
2018-08-25T06:03:07.462Z,124.00
2018-08-25T06:04:07.267Z,120.00
2018-08-25T06:05:07.271Z,120.00
2018-08-25T06:06:07.123Z,120.00
2018-08-25T06:07:07.074Z,124.00
2018-08-25T06:08:27.955Z,128.00
2018-08-25T06:09:06.907Z,132.00
2018-08-25T06:10:06.817Z,136.00
2018-08-25T06:11:06.748Z,136.00
2018-08-25T06:12:06.668Z,140.00
2018-08-25T06:13:06.601Z,144.00
2018-08-25T06:14:27.497Z,144.00
2018-08-25T06:15:06.443Z,144.00
2018-08-25T06:16:06.362Z,144.00
2018-08-25T06:17:06.293Z,148.00
2018-08-25T06:18:06.219Z,148.00
2018-08-25T06:19:06.143Z,152.00
2018-08-25T06:20:27.050Z,160.00
2018-08-25T06:21:05.977Z,164.00
2018-08-25T06:22:05.921Z,168.00
2018-08-25T06:23:05.831Z,168.00
2018-08-25T06:24:05.761Z,172.00
2018-08-25T06:25:05.686Z,176.00
2018-08-25T06:26:26.593Z,180.00
2018-08-25T06:27:05.525Z,184.00
2018-08-25T06:28:05.456Z,192.00
2018-08-25T06:29:05.386Z,200.00
2018-08-25T06:30:05.338Z,204.00
2018-08-25T06:31:05.291Z,212.00
2018-08-25T06:32:26.132Z,216.00
2018-08-25T06:33:05.070Z,220.00
2018-08-25T06:34:05.008Z,228.00
2018-08-25T06:35:04.921Z,232.00
2018-08-25T06:36:04.965Z,232.00
2018-08-25T06:37:04.770Z,236.00
2018-08-25T06:38:25.677Z,236.00
2018-08-25T06:39:04.616Z,240.00
2018-08-25T06:40:04.547Z,240.00
2018-08-25T06:41:04.471Z,248.00
2018-08-25T06:42:04.398Z,248.00
2018-08-25T06:43:04.310Z,256.00
2018-08-25T06:44:25.221Z,264.00
2018-08-25T06:45:04.162Z,272.00
2018-08-25T06:46:04.093Z,284.00
2018-08-25T06:47:04.003Z,292.00
2018-08-25T06:48:03.948Z,300.00
2018-08-25T06:49:03.857Z,300.00
2018-08-25T06:50:24.791Z,308.00
2018-08-25T06:51:03.708Z,312.00
2018-08-25T06:52:03.630Z,316.00
2018-08-25T06:53:03.563Z,324.00
2018-08-25T06:54:03.481Z,336.00
2018-08-25T06:55:03.413Z,348.00
2018-08-25T06:56:24.314Z,356.00
2018-08-25T06:57:03.257Z,368.00
2018-08-25T06:58:03.181Z,384.00
2018-08-25T06:59:03.107Z,396.00
2018-08-25T07:00:03.016Z,408.00
2018-08-25T07:01:02.948Z,416.00
2018-08-25T07:02:23.850Z,420.00
2018-08-25T07:03:02.800Z,412.00
2018-08-25T07:04:02.721Z,404.00
2018-08-25T07:05:02.773Z,388.00
2018-08-25T07:06:03.236Z,376.00
2018-08-25T07:07:02.494Z,368.00
2018-08-25T07:08:23.406Z,372.00
2018-08-25T07:09:02.352Z,372.00
2018-08-25T07:10:02.272Z,380.00
2018-08-25T07:11:02.197Z,388.00
2018-08-25T07:12:02.120Z,404.00
2018-08-25T07:13:02.090Z,420.00
2018-08-25T07:14:22.948Z,444.00
2018-08-25T07:15:01.893Z,460.00
2018-08-25T07:16:01.804Z,460.00
2018-08-25T07:17:01.745Z,464.00
2018-08-25T07:18:01.664Z,460.00
2018-08-25T07:19:01.596Z,460.00
2018-08-25T07:20:22.499Z,456.00
2018-08-25T07:21:01.437Z,464.00
2018-08-25T07:22:01.366Z,468.00
2018-08-25T07:23:01.290Z,472.00
2018-08-25T07:24:01.209Z,476.00
2018-08-25T07:25:01.143Z,488.00
2018-08-25T07:26:22.185Z,492.00
2018-08-25T07:27:00.985Z,504.00
2018-08-25T07:28:00.905Z,524.00
2018-08-25T07:29:00.833Z,540.00
2018-08-25T07:30:00.792Z,564.00
2018-08-25T07:31:00.689Z,596.00
2018-08-25T07:32:21.593Z,616.00
2018-08-25T07:33:00.531Z,616.00
2018-08-25T07:34:00.441Z,592.00
2018-08-25T07:35:00.382Z,560.00
2018-08-25T07:36:00.311Z,544.00
2018-08-25T07:37:00.246Z,532.00
2018-08-25T07:38:21.181Z,528.00
2018-08-25T07:39:00.075Z,528.00
2018-08-25T07:40:00.000Z,532.00
2018-08-25T07:40:59.929Z,536.00
2018-08-25T07:41:59.874Z,532.00
2018-08-25T07:42:59.772Z,524.00
2018-08-25T07:44:20.682Z,516.00
2018-08-25T07:44:59.622Z,520.00
2018-08-25T07:45:59.548Z,532.00
2018-08-25T07:46:59.497Z,536.00
2018-08-25T07:47:59.400Z,536.00
2018-08-25T07:48:59.327Z,540.00
2018-08-25T07:50:20.231Z,540.00
2018-08-25T07:50:59.224Z,528.00
2018-08-25T07:51:59.094Z,516.00
2018-08-25T07:52:59.025Z,524.00
2018-08-25T07:53:58.945Z,532.00
2018-08-25T07:54:58.877Z,544.00
2018-08-25T07:56:19.784Z,568.00
2018-08-25T07:56:58.730Z,592.00
2018-08-25T07:57:58.637Z,620.00
2018-08-25T07:58:58.578Z,644.00
2018-08-25T07:59:58.503Z,660.00
2018-08-25T08:00:58.420Z,676.00
2018-08-25T08:02:19.339Z,680.00
2018-08-25T08:02:58.277Z,676.00
2018-08-25T08:03:58.197Z,660.00
2018-08-25T08:04:58.124Z,656.00
2018-08-25T08:05:58.045Z,652.00
2018-08-25T08:06:57.979Z,644.00
2018-08-25T08:08:18.880Z,644.00
2018-08-25T08:08:57.814Z,640.00
2018-08-25T08:09:57.758Z,644.00
2018-08-25T08:10:57.661Z,648.00
2018-08-25T08:11:59.727Z,652.00
2018-08-25T08:12:57.511Z,656.00
2018-08-25T08:14:19.496Z,664.00
2018-08-25T08:14:57.365Z,680.00
2018-08-25T08:15:57.283Z,700.00
2018-08-25T08:16:57.221Z,712.00
2018-08-25T08:17:57.137Z,736.00
2018-08-25T08:18:57.069Z,756.00
2018-08-25T08:20:18.001Z,764.00
2018-08-25T08:20:56.923Z,764.00
2018-08-25T08:21:56.846Z,764.00
2018-08-25T08:22:56.765Z,776.00
2018-08-25T08:23:56.700Z,788.00
2018-08-25T08:24:56.614Z,808.00
2018-08-25T08:26:17.641Z,844.00
2018-08-25T08:26:56.469Z,880.00
2018-08-25T08:27:56.401Z,888.00
2018-08-25T08:28:56.352Z,876.00
2018-08-25T08:29:56.240Z,864.00
2018-08-25T08:30:57.891Z,824.00
2018-08-25T08:32:17.083Z,812.00
2018-08-25T08:32:56.137Z,884.00
2018-08-25T08:33:55.943Z,864.00
2018-08-25T08:34:55.893Z,856.00
2018-08-25T08:35:56.375Z,892.00
2018-08-25T08:36:55.726Z,928.00
2018-08-25T08:38:16.691Z,828.00
2018-08-25T08:38:55.568Z,808.00
2018-08-25T08:39:55.598Z,800.00
2018-08-25T08:40:55.421Z,792.00
2018-08-25T08:41:55.413Z,788.00
2018-08-25T08:42:55.273Z,772.00
2018-08-25T08:44:16.214Z,744.00
2018-08-25T08:44:55.220Z,720.00
2018-08-25T08:45:55.137Z,696.00
2018-08-25T08:46:55.031Z,672.00
2018-08-25T08:47:54.940Z,640.00
2018-08-25T08:48:54.831Z,632.00
2018-08-25T08:50:21.666Z,628.00
2018-08-25T08:51:02.423Z,632.00
2018-08-25T08:51:54.756Z,640.00
2018-08-25T08:52:54.534Z,656.00
2018-08-25T08:53:54.685Z,676.00
2018-08-25T08:54:54.376Z,684.00
2018-08-25T08:56:15.370Z,684.00
2018-08-25T08:56:54.231Z,676.00
2018-08-25T08:57:54.151Z,672.00
2018-08-25T08:58:54.094Z,668.00
2018-08-25T08:59:54.012Z,664.00
2018-08-25T09:00:54.126Z,660.00
2018-08-25T09:02:14.940Z,660.00
2018-08-25T09:02:53.834Z,668.00
2018-08-25T09:03:53.701Z,668.00
2018-08-25T09:04:53.727Z,656.00
2018-08-25T09:05:53.565Z,640.00
2018-08-25T09:06:53.542Z,616.00
2018-08-25T09:08:14.397Z,596.00
2018-08-25T09:08:53.442Z,576.00
2018-08-25T09:09:53.265Z,520.00
2018-08-25T09:10:53.253Z,524.00
2018-08-25T09:11:53.144Z,500.00
2018-08-25T09:12:53.065Z,472.00
2018-08-25T09:14:13.956Z,432.00
2018-08-25T09:14:52.966Z,388.00
2018-08-25T09:15:52.819Z,364.00
2018-08-25T09:16:52.888Z,360.00
2018-08-25T09:17:52.664Z,384.00
2018-08-25T09:18:53.098Z,404.00
2018-08-25T09:20:13.585Z,416.00
2018-08-25T09:20:52.508Z,416.00
2018-08-25T09:21:52.366Z,424.00
2018-08-25T09:22:52.305Z,432.00
2018-08-25T09:23:52.223Z,440.00
2018-08-25T09:24:52.324Z,440.00
2018-08-25T09:26:13.158Z,432.00
2018-08-25T09:26:52.145Z,436.00
2018-08-25T09:27:51.923Z,448.00
2018-08-25T09:28:51.871Z,468.00
2018-08-25T09:29:51.844Z,484.00
2018-08-25T09:30:51.708Z,496.00
2018-08-25T09:32:18.243Z,496.00
2018-08-25T09:32:57.018Z,496.00
2018-08-25T09:33:51.490Z,508.00
2018-08-25T09:34:51.469Z,508.00
2018-08-25T09:35:51.427Z,504.00
2018-08-25T09:36:51.459Z,516.00
2018-08-25T09:38:12.162Z,524.00
2018-08-25T09:38:51.192Z,560.00
2018-08-25T09:39:51.034Z,572.00
2018-08-25T09:40:50.994Z,584.00
2018-08-25T09:41:50.972Z,572.00
2018-08-25T09:42:50.906Z,528.00
2018-08-25T09:44:11.717Z,500.00
2018-08-25T09:44:50.719Z,476.00
2018-08-25T09:45:50.589Z,460.00
2018-08-25T09:46:50.668Z,444.00
2018-08-25T09:47:50.444Z,452.00
2018-08-25T09:48:50.436Z,496.00
2018-08-25T09:50:11.277Z,532.00
2018-08-25T09:50:50.245Z,544.00
2018-08-25T09:51:50.146Z,544.00
2018-08-25T09:52:50.155Z,532.00
2018-08-25T09:53:49.993Z,568.00
2018-08-25T09:54:49.971Z,564.00
2018-08-25T09:56:10.832Z,604.00
2018-08-25T09:56:49.872Z,596.00
2018-08-25T09:57:49.692Z,568.00
2018-08-25T09:58:49.737Z,540.00
2018-08-25T09:59:49.547Z,504.00
2018-08-25T10:00:49.498Z,480.00
2018-08-25T10:02:10.378Z,484.00
2018-08-25T10:02:49.407Z,516.00
2018-08-25T10:03:49.250Z,556.00
2018-08-25T10:04:49.211Z,568.00
2018-08-25T10:05:49.104Z,556.00
2018-08-25T10:06:49.122Z,532.00
2018-08-25T10:08:09.931Z,496.00
2018-08-25T10:08:48.933Z,496.00
2018-08-25T10:09:48.807Z,520.00
2018-08-25T10:10:48.902Z,552.00
2018-08-25T10:11:48.659Z,568.00
2018-08-25T10:12:48.669Z,560.00
2018-08-25T10:14:09.493Z,548.00
2018-08-25T10:14:48.458Z,552.00
2018-08-25T10:15:48.361Z,556.00
2018-08-25T10:16:48.449Z,556.00
2018-08-25T10:17:48.216Z,564.00
2018-08-25T10:18:48.184Z,572.00
2018-08-25T10:20:09.046Z,584.00
2018-08-25T10:20:48.085Z,584.00
2018-08-25T10:21:47.917Z,580.00
2018-08-25T10:22:47.899Z,576.00
2018-08-25T10:23:47.770Z,560.00
2018-08-25T10:24:47.811Z,548.00
2018-08-25T10:26:08.603Z,532.00
2018-08-25T10:26:47.620Z,524.00
2018-08-25T10:27:47.474Z,520.00
2018-08-25T10:28:47.427Z,524.00
2018-08-25T10:29:47.334Z,528.00
2018-08-25T10:30:47.340Z,536.00
2018-08-25T10:32:08.161Z,540.00
2018-08-25T10:32:47.151Z,548.00
2018-08-25T10:33:47.022Z,560.00
2018-08-25T10:34:47.065Z,568.00
2018-08-25T10:35:46.948Z,580.00
2018-08-25T10:36:46.813Z,588.00
2018-08-25T10:38:07.762Z,608.00
2018-08-25T10:38:46.658Z,624.00
2018-08-25T10:39:46.687Z,648.00
2018-08-25T10:40:46.508Z,648.00
2018-08-25T10:41:46.563Z,652.00
2018-08-25T10:42:46.361Z,640.00
2018-08-25T10:44:07.293Z,624.00
2018-08-25T10:44:46.212Z,608.00
2018-08-25T10:45:46.133Z,596.00
2018-08-25T10:46:46.112Z,596.00
2018-08-25T10:47:45.985Z,600.00
2018-08-25T10:48:46.023Z,604.00
2018-08-25T10:50:06.827Z,608.00
2018-08-25T10:50:45.838Z,612.00
2018-08-25T10:51:45.697Z,608.00
2018-08-25T10:52:45.647Z,612.00
2018-08-25T10:53:45.541Z,608.00
2018-08-25T10:54:45.480Z,616.00
2018-08-25T10:56:06.453Z,608.00
2018-08-25T10:56:45.326Z,604.00
2018-08-25T10:57:45.242Z,604.00
2018-08-25T10:58:45.275Z,604.00
2018-08-25T10:59:45.099Z,600.00
2018-08-25T11:00:45.268Z,576.00
2018-08-25T11:02:05.931Z,544.00
2018-08-25T11:02:44.891Z,508.00
2018-08-25T11:03:44.810Z,472.00
2018-08-25T11:04:44.800Z,432.00
2018-08-25T11:05:44.654Z,396.00
2018-08-25T11:06:44.612Z,364.00
2018-08-25T11:08:05.492Z,340.00
2018-08-25T11:08:44.575Z,328.00
2018-08-25T11:09:44.435Z,336.00
2018-08-25T11:10:44.329Z,364.00
2018-08-25T11:11:44.216Z,408.00
2018-08-25T11:12:44.238Z,440.00
2018-08-25T11:14:05.163Z,440.00
2018-08-25T11:14:44.240Z,424.00
2018-08-25T11:15:43.963Z,420.00
2018-08-25T11:16:43.981Z,416.00
2018-08-25T11:17:43.793Z,420.00
2018-08-25T11:18:43.830Z,440.00
2018-08-25T11:20:04.599Z,496.00
2018-08-25T11:20:43.580Z,564.00
2018-08-25T11:21:43.458Z,632.00
2018-08-25T11:22:43.489Z,676.00
2018-08-25T11:23:43.384Z,704.00
2018-08-25T11:24:43.303Z,724.00
2018-08-25T11:26:04.189Z,732.00
2018-08-25T11:26:43.253Z,724.00
2018-08-25T11:27:43.033Z,700.00
2018-08-25T11:28:43.017Z,672.00
2018-08-25T11:29:42.875Z,648.00
2018-08-25T11:30:42.796Z,640.00
2018-08-25T11:32:03.708Z,660.00
2018-08-25T11:32:42.786Z,676.00
2018-08-25T11:33:42.580Z,680.00
2018-08-25T11:34:42.512Z,668.00
2018-08-25T11:35:42.494Z,644.00
2018-08-25T11:36:42.355Z,628.00
2018-08-25T11:38:03.511Z,612.00
2018-08-25T11:38:42.204Z,596.00
2018-08-25T11:39:42.167Z,560.00
2018-08-25T11:40:42.056Z,516.00
2018-08-25T11:41:42.076Z,472.00
2018-08-25T11:42:41.917Z,448.00
2018-08-25T11:44:02.888Z,464.00
2018-08-25T11:44:41.757Z,484.00
2018-08-25T11:45:41.694Z,488.00
2018-08-25T11:46:41.705Z,484.00
2018-08-25T11:47:41.533Z,476.00
2018-08-25T11:48:41.518Z,460.00
2018-08-25T11:50:02.369Z,456.00
2018-08-25T11:50:41.430Z,460.00
2018-08-25T11:51:41.247Z,452.00
2018-08-25T11:52:41.231Z,428.00
2018-08-25T11:53:41.092Z,408.00
2018-08-25T11:54:41.044Z,412.00
2018-08-25T11:56:01.934Z,420.00
2018-08-25T11:56:40.953Z,412.00
2018-08-25T11:57:40.797Z,404.00
2018-08-25T11:58:40.774Z,384.00
2018-08-25T11:59:40.649Z,360.00
2018-08-25T12:00:40.670Z,324.00
2018-08-25T12:02:01.492Z,288.00
2018-08-25T12:02:40.489Z,256.00
2018-08-25T12:03:40.353Z,240.00
2018-08-25T12:04:40.392Z,240.00
2018-08-25T12:05:40.199Z,244.00
2018-08-25T12:06:40.203Z,252.00
2018-08-25T12:08:01.037Z,276.00
2018-08-25T12:08:40.015Z,300.00
2018-08-25T12:09:39.922Z,328.00
2018-08-25T12:10:39.919Z,364.00
2018-08-25T12:11:39.758Z,420.00
2018-08-25T12:12:39.690Z,468.00
2018-08-25T12:14:00.621Z,508.00
2018-08-25T12:14:39.538Z,524.00
2018-08-25T12:15:39.545Z,524.00
2018-08-25T12:16:39.396Z,528.00
2018-08-25T12:17:39.314Z,532.00
2018-08-25T12:18:39.235Z,536.00
2018-08-25T12:20:00.311Z,548.00
2018-08-25T12:20:39.097Z,560.00
2018-08-25T12:21:39.021Z,576.00
2018-08-25T12:22:38.983Z,588.00
2018-08-25T12:23:39.012Z,588.00
2018-08-25T12:24:38.883Z,592.00
2018-08-25T12:25:59.707Z,592.00
2018-08-25T12:26:38.694Z,592.00
2018-08-25T12:27:38.629Z,584.00
2018-08-25T12:28:38.605Z,572.00
2018-08-25T12:29:38.432Z,564.00
2018-08-25T12:30:38.567Z,564.00
2018-08-25T12:31:59.249Z,560.00
2018-08-25T12:32:38.220Z,556.00
2018-08-25T12:33:38.191Z,552.00
2018-08-25T12:34:38.218Z,548.00
2018-08-25T12:35:37.962Z,544.00
2018-08-25T12:36:37.968Z,536.00
2018-08-25T12:37:58.805Z,532.00
2018-08-25T12:38:37.975Z,532.00
2018-08-25T12:39:37.765Z,544.00
2018-08-25T12:40:37.657Z,548.00
2018-08-25T12:41:37.520Z,552.00
2018-08-25T12:42:37.559Z,552.00
2018-08-25T12:43:58.351Z,552.00
2018-08-25T12:44:37.384Z,540.00
2018-08-25T12:45:37.223Z,528.00